sensor_id;sensor_type;location;lat;lon;timestamp;P1;durP1;ratioP1;P2;durP2;ratioP2
7495;SDS011;3789;47.064;15.482;2023-09-12T00:00:31;19.35;;;17.55;;
7495;SDS011;3789;47.064;15.482;2023-09-12T00:03:05;17.75;;;16.05;;
7495;SDS011;3789;47.064;15.482;2023-09-12T00:08:57;17.08;;;15.57;;
7495;SDS011;3789;47.064;15.482;2023-09-12T00:11:35;16.23;;;14.55;;
7495;SDS011;3789;47.064;15.482;2023-09-12T00:14:08;17.63;;;15.80;;
7495;SDS011;3789;47.064;15.482;2023-09-12T00:16:37;16.30;;;14.82;;
7495;SDS011;3789;47.064;15.482;2023-09-12T00:19:07;15.48;;;14.15;;
7495;SDS011;3789;47.064;15.482;2023-09-12T00:21:37;17.02;;;15.43;;
7495;SDS011;3789;47.064;15.482;2023-09-12T00:24:12;16.08;;;14.68;;
7495;SDS011;3789;47.064;15.482;2023-09-12T00:26:42;17.50;;;15.93;;
7495;SDS011;3789;47.064;15.482;2023-09-12T00:29:14;18.05;;;16.17;;
7495;SDS011;3789;47.064;15.482;2023-09-12T00:31:48;16.27;;;14.75;;
7495;SDS011;3789;47.064;15.482;2023-09-12T00:34:17;16.55;;;15.00;;
7495;SDS011;3789;47.064;15.482;2023-09-12T00:36:50;17.20;;;15.55;;
7495;SDS011;3789;47.064;15.482;2023-09-12T00:39:22;16.95;;;15.45;;
7495;SDS011;3789;47.064;15.482;2023-09-12T00:41:53;17.58;;;16.08;;
7495;SDS011;3789;47.064;15.482;2023-09-12T00:44:24;16.63;;;15.23;;
7495;SDS011;3789;47.064;15.482;2023-09-12T00:46:53;16.92;;;15.43;;
7495;SDS011;3789;47.064;15.482;2023-09-12T00:49:23;16.63;;;15.23;;
7495;SDS011;3789;47.064;15.482;2023-09-12T00:52:01;17.05;;;15.50;;
7495;SDS011;3789;47.064;15.482;2023-09-12T00:54:31;16.92;;;15.25;;
7495;SDS011;3789;47.064;15.482;2023-09-12T00:57:02;16.20;;;14.65;;
7495;SDS011;3789;47.064;15.482;2023-09-12T00:59:31;17.23;;;15.73;;
7495;SDS011;3789;47.064;15.482;2023-09-12T01:02:03;17.27;;;15.73;;
7495;SDS011;3789;47.064;15.482;2023-09-12T01:04:35;17.50;;;15.95;;
7495;SDS011;3789;47.064;15.482;2023-09-12T01:07:04;17.10;;;15.45;;
7495;SDS011;3789;47.064;15.482;2023-09-12T01:09:37;17.33;;;15.82;;
7495;SDS011;3789;47.064;15.482;2023-09-12T01:12:08;17.42;;;15.93;;
7495;SDS011;3789;47.064;15.482;2023-09-12T01:14:45;17.38;;;15.82;;
7495;SDS011;3789;47.064;15.482;2023-09-12T01:17:14;17.13;;;15.55;;
7495;SDS011;3789;47.064;15.482;2023-09-12T01:19:51;17.95;;;16.17;;
7495;SDS011;3789;47.064;15.482;2023-09-12T01:29:02;16.27;;;14.80;;
7495;SDS011;3789;47.064;15.482;2023-09-12T01:31:33;17.08;;;15.50;;
7495;SDS011;3789;47.064;15.482;2023-09-12T01:34:11;15.98;;;14.55;;
7495;SDS011;3789;47.064;15.482;2023-09-12T01:36:43;16.10;;;14.70;;
7495;SDS011;3789;47.064;15.482;2023-09-12T01:39:14;16.45;;;15.00;;
7495;SDS011;3789;47.064;15.482;2023-09-12T01:41:43;16.70;;;15.18;;
7495;SDS011;3789;47.064;15.482;2023-09-12T01:44:28;17.20;;;15.73;;
7495;SDS011;3789;47.064;15.482;2023-09-12T01:47:05;16.08;;;14.68;;
7495;SDS011;3789;47.064;15.482;2023-09-12T01:49:36;17.45;;;15.82;;
7495;SDS011;3789;47.064;15.482;2023-09-12T01:52:15;17.52;;;16.02;;
7495;SDS011;3789;47.064;15.482;2023-09-12T01:54:51;17.85;;;16.23;;
7495;SDS011;3789;47.064;15.482;2023-09-12T01:57:27;17.25;;;15.73;;
7495;SDS011;3789;47.064;15.482;2023-09-12T01:59:57;17.02;;;15.43;;
7495;SDS011;3789;47.064;15.482;2023-09-12T02:02:29;17.30;;;15.75;;
7495;SDS011;3789;47.064;15.482;2023-09-12T02:05:04;17.48;;;15.98;;
7495;SDS011;3789;47.064;15.482;2023-09-12T02:07:53;16.27;;;14.77;;
7495;SDS011;3789;47.064;15.482;2023-09-12T02:10:22;16.77;;;15.27;;
7495;SDS011;3789;47.064;15.482;2023-09-12T02:12:52;17.00;;;15.50;;
7495;SDS011;3789;47.064;15.482;2023-09-12T02:15:20;17.60;;;15.95;;
7495;SDS011;3789;47.064;15.482;2023-09-12T02:17:51;18.23;;;16.42;;
7495;SDS011;3789;47.064;15.482;2023-09-12T02:20:21;17.65;;;15.82;;
7495;SDS011;3789;47.064;15.482;2023-09-12T02:22:53;18.02;;;16.15;;
7495;SDS011;3789;47.064;15.482;2023-09-12T02:25:23;16.88;;;15.27;;
7495;SDS011;3789;47.064;15.482;2023-09-12T02:27:53;17.88;;;16.25;;
7495;SDS011;3789;47.064;15.482;2023-09-12T02:30:22;16.60;;;15.20;;
7495;SDS011;3789;47.064;15.482;2023-09-12T02:32:50;17.63;;;16.02;;
7495;SDS011;3789;47.064;15.482;2023-09-12T02:35:18;17.50;;;15.90;;
7495;SDS011;3789;47.064;15.482;2023-09-12T02:37:47;16.55;;;15.07;;
7495;SDS011;3789;47.064;15.482;2023-09-12T02:40:16;19.80;;;14.75;;
7495;SDS011;3789;47.064;15.482;2023-09-12T02:42:55;18.40;;;16.58;;
7495;SDS011;3789;47.064;15.482;2023-09-12T02:45:29;18.23;;;16.10;;
7495;SDS011;3789;47.064;15.482;2023-09-12T02:47:57;16.65;;;15.15;;
7495;SDS011;3789;47.064;15.482;2023-09-12T02:50:35;17.60;;;15.75;;
7495;SDS011;3789;47.064;15.482;2023-09-12T02:53:04;17.85;;;16.25;;
7495;SDS011;3789;47.064;15.482;2023-09-12T02:55:38;17.15;;;15.55;;
7495;SDS011;3789;47.064;15.482;2023-09-12T02:58:20;17.52;;;15.85;;
7495;SDS011;3789;47.064;15.482;2023-09-12T03:01:07;18.58;;;16.67;;
7495;SDS011;3789;47.064;15.482;2023-09-12T03:04:37;17.38;;;15.85;;
7495;SDS011;3789;47.064;15.482;2023-09-12T03:07:36;18.30;;;16.60;;
7495;SDS011;3789;47.064;15.482;2023-09-12T03:10:11;18.52;;;16.85;;
7495;SDS011;3789;47.064;15.482;2023-09-12T03:12:45;19.08;;;17.25;;
7495;SDS011;3789;47.064;15.482;2023-09-12T03:15:35;19.27;;;17.50;;
7495;SDS011;3789;47.064;15.482;2023-09-12T03:18:22;19.13;;;17.27;;
7495;SDS011;3789;47.064;15.482;2023-09-12T03:21:08;18.77;;;17.13;;
7495;SDS011;3789;47.064;15.482;2023-09-12T03:23:44;19.38;;;17.50;;
7495;SDS011;3789;47.064;15.482;2023-09-12T03:26:27;19.90;;;18.20;;
7495;SDS011;3789;47.064;15.482;2023-09-12T03:29:34;21.23;;;19.33;;
7495;SDS011;3789;47.064;15.482;2023-09-12T03:32:23;21.33;;;19.25;;
7495;SDS011;3789;47.064;15.482;2023-09-12T03:38:36;18.67;;;16.85;;
7495;SDS011;3789;47.064;15.482;2023-09-12T03:41:21;17.70;;;16.00;;
7495;SDS011;3789;47.064;15.482;2023-09-12T03:46:53;18.70;;;17.00;;
7495;SDS011;3789;47.064;15.482;2023-09-12T03:49:36;19.60;;;17.60;;
7495;SDS011;3789;47.064;15.482;2023-09-12T03:52:13;19.25;;;17.35;;
7495;SDS011;3789;47.064;15.482;2023-09-12T03:54:45;19.70;;;17.75;;
7495;SDS011;3789;47.064;15.482;2023-09-12T03:57:26;19.75;;;17.85;;
7495;SDS011;3789;47.064;15.482;2023-09-12T04:00:12;20.08;;;18.17;;
7495;SDS011;3789;47.064;15.482;2023-09-12T04:02:54;19.95;;;18.02;;
7495;SDS011;3789;47.064;15.482;2023-09-12T04:05:34;20.30;;;18.40;;
7495;SDS011;3789;47.064;15.482;2023-09-12T04:08:22;20.85;;;19.00;;
7495;SDS011;3789;47.064;15.482;2023-09-12T04:11:08;21.42;;;19.52;;
7495;SDS011;3789;47.064;15.482;2023-09-12T04:14:09;21.23;;;19.17;;
7495;SDS011;3789;47.064;15.482;2023-09-12T04:16:57;20.17;;;18.17;;
7495;SDS011;3789;47.064;15.482;2023-09-12T04:19:38;20.60;;;18.40;;
7495;SDS011;3789;47.064;15.482;2023-09-12T04:22:20;19.77;;;18.00;;
7495;SDS011;3789;47.064;15.482;2023-09-12T04:25:20;19.05;;;17.35;;
7495;SDS011;3789;47.064;15.482;2023-09-12T04:27:49;19.55;;;17.55;;
7495;SDS011;3789;47.064;15.482;2023-09-12T04:30:28;20.85;;;18.92;;
7495;SDS011;3789;47.064;15.482;2023-09-12T04:33:06;19.63;;;17.75;;
7495;SDS011;3789;47.064;15.482;2023-09-12T04:35:45;18.17;;;16.27;;
7495;SDS011;3789;47.064;15.482;2023-09-12T04:38:37;18.55;;;16.85;;
7495;SDS011;3789;47.064;15.482;2023-09-12T04:41:30;18.65;;;16.92;;
7495;SDS011;3789;47.064;15.482;2023-09-12T04:44:23;20.55;;;18.60;;
7495;SDS011;3789;47.064;15.482;2023-09-12T04:47:44;17.67;;;15.98;;
7495;SDS011;3789;47.064;15.482;2023-09-12T04:51:06;18.95;;;17.33;;
7495;SDS011;3789;47.064;15.482;2023-09-12T04:54:00;18.47;;;16.80;;
7495;SDS011;3789;47.064;15.482;2023-09-12T04:57:19;18.08;;;16.42;;
7495;SDS011;3789;47.064;15.482;2023-09-12T05:00:17;18.00;;;16.30;;
7495;SDS011;3789;47.064;15.482;2023-09-12T05:03:17;16.98;;;15.38;;
7495;SDS011;3789;47.064;15.482;2023-09-12T05:05:57;16.95;;;15.32;;
7495;SDS011;3789;47.064;15.482;2023-09-12T05:08:46;16.52;;;14.93;;
7495;SDS011;3789;47.064;15.482;2023-09-12T05:11:18;15.60;;;14.20;;
7495;SDS011;3789;47.064;15.482;2023-09-12T05:14:11;14.82;;;13.35;;
7495;SDS011;3789;47.064;15.482;2023-09-12T05:17:07;16.00;;;14.35;;
7495;SDS011;3789;47.064;15.482;2023-09-12T05:19:46;15.70;;;14.30;;
7495;SDS011;3789;47.064;15.482;2023-09-12T05:22:44;15.93;;;14.57;;
7495;SDS011;3789;47.064;15.482;2023-09-12T05:28:49;14.15;;;12.93;;
7495;SDS011;3789;47.064;15.482;2023-09-12T05:31:50;13.77;;;12.57;;
7495;SDS011;3789;47.064;15.482;2023-09-12T05:34:19;11.85;;;10.68;;
7495;SDS011;3789;47.064;15.482;2023-09-12T05:37:44;13.18;;;11.98;;
7495;SDS011;3789;47.064;15.482;2023-09-12T05:40:51;12.63;;;11.43;;
7495;SDS011;3789;47.064;15.482;2023-09-12T05:43:37;13.45;;;11.38;;
7495;SDS011;3789;47.064;15.482;2023-09-12T05:46:49;12.27;;;11.00;;
7495;SDS011;3789;47.064;15.482;2023-09-12T05:49:38;12.23;;;11.13;;
7495;SDS011;3789;47.064;15.482;2023-09-12T05:52:30;13.77;;;12.25;;
7495;SDS011;3789;47.064;15.482;2023-09-12T05:55:05;12.23;;;11.13;;
7495;SDS011;3789;47.064;15.482;2023-09-12T05:57:41;13.10;;;11.88;;
7495;SDS011;3789;47.064;15.482;2023-09-12T06:00:25;12.48;;;11.27;;
7495;SDS011;3789;47.064;15.482;2023-09-12T06:03:44;12.77;;;11.57;;
7495;SDS011;3789;47.064;15.482;2023-09-12T06:06:29;12.40;;;11.30;;
7495;SDS011;3789;47.064;15.482;2023-09-12T06:09:15;11.90;;;10.68;;
7495;SDS011;3789;47.064;15.482;2023-09-12T06:12:12;12.93;;;11.18;;
7495;SDS011;3789;47.064;15.482;2023-09-12T06:14:55;13.93;;;11.48;;
7495;SDS011;3789;47.064;15.482;2023-09-12T06:17:53;13.55;;;12.30;;
7495;SDS011;3789;47.064;15.482;2023-09-12T06:20:28;13.75;;;11.63;;
7495;SDS011;3789;47.064;15.482;2023-09-12T06:23:08;13.85;;;12.45;;
7495;SDS011;3789;47.064;15.482;2023-09-12T06:25:44;11.90;;;10.70;;
7495;SDS011;3789;47.064;15.482;2023-09-12T06:28:13;12.23;;;11.02;;
7495;SDS011;3789;47.064;15.482;2023-09-12T06:30:57;13.13;;;11.82;;
7495;SDS011;3789;47.064;15.482;2023-09-12T06:33:30;12.45;;;11.20;;
7495;SDS011;3789;47.064;15.482;2023-09-12T06:35:59;14.73;;;11.20;;
7495;SDS011;3789;47.064;15.482;2023-09-12T06:38:30;13.15;;;11.65;;
7495;SDS011;3789;47.064;15.482;2023-09-12T06:41:01;12.20;;;11.00;;
7495;SDS011;3789;47.064;15.482;2023-09-12T06:43:31;12.15;;;10.88;;
7495;SDS011;3789;47.064;15.482;2023-09-12T06:46:01;12.18;;;11.07;;
7495;SDS011;3789;47.064;15.482;2023-09-12T06:48:38;12.60;;;11.40;;
7495;SDS011;3789;47.064;15.482;2023-09-12T06:51:10;12.15;;;10.93;;
7495;SDS011;3789;47.064;15.482;2023-09-12T06:53:49;12.95;;;11.63;;
7495;SDS011;3789;47.064;15.482;2023-09-12T06:56:19;12.27;;;11.10;;
7495;SDS011;3789;47.064;15.482;2023-09-12T06:58:50;12.82;;;11.57;;
7495;SDS011;3789;47.064;15.482;2023-09-12T07:01:21;12.20;;;10.93;;
7495;SDS011;3789;47.064;15.482;2023-09-12T07:03:50;12.75;;;11.43;;
7495;SDS011;3789;47.064;15.482;2023-09-12T07:06:24;12.38;;;10.55;;
7495;SDS011;3789;47.064;15.482;2023-09-12T07:08:52;12.93;;;11.57;;
7495;SDS011;3789;47.064;15.482;2023-09-12T07:11:21;12.13;;;10.93;;
7495;SDS011;3789;47.064;15.482;2023-09-12T07:13:52;13.15;;;11.20;;
7495;SDS011;3789;47.064;15.482;2023-09-12T07:16:22;12.50;;;10.95;;
7495;SDS011;3789;47.064;15.482;2023-09-12T07:18:58;12.57;;;11.43;;
7495;SDS011;3789;47.064;15.482;2023-09-12T07:21:29;11.73;;;10.63;;
7495;SDS011;3789;47.064;15.482;2023-09-12T07:24:01;11.35;;;10.35;;
7495;SDS011;3789;47.064;15.482;2023-09-12T07:26:32;12.43;;;11.05;;
7495;SDS011;3789;47.064;15.482;2023-09-12T07:29:08;11.63;;;10.43;;
7495;SDS011;3789;47.064;15.482;2023-09-12T07:31:37;11.57;;;10.57;;
7495;SDS011;3789;47.064;15.482;2023-09-12T07:34:04;12.10;;;10.00;;
7495;SDS011;3789;47.064;15.482;2023-09-12T07:36:37;13.10;;;11.80;;
7495;SDS011;3789;47.064;15.482;2023-09-12T07:39:09;12.20;;;10.82;;
7495;SDS011;3789;47.064;15.482;2023-09-12T07:41:39;13.18;;;11.65;;
7495;SDS011;3789;47.064;15.482;2023-09-12T07:44:09;13.65;;;12.23;;
7495;SDS011;3789;47.064;15.482;2023-09-12T07:46:43;13.73;;;12.30;;
7495;SDS011;3789;47.064;15.482;2023-09-12T07:49:11;14.52;;;12.30;;
7495;SDS011;3789;47.064;15.482;2023-09-12T07:51:42;14.65;;;11.75;;
7495;SDS011;3789;47.064;15.482;2023-09-12T07:54:14;13.68;;;12.38;;
7495;SDS011;3789;47.064;15.482;2023-09-12T07:56:59;12.20;;;11.18;;
7495;SDS011;3789;47.064;15.482;2023-09-12T07:59:29;13.00;;;11.75;;
7495;SDS011;3789;47.064;15.482;2023-09-12T08:01:59;13.65;;;12.05;;
7495;SDS011;3789;47.064;15.482;2023-09-12T08:04:34;13.60;;;12.43;;
7495;SDS011;3789;47.064;15.482;2023-09-12T08:07:03;12.75;;;11.65;;
7495;SDS011;3789;47.064;15.482;2023-09-12T08:12:25;12.95;;;11.63;;
7495;SDS011;3789;47.064;15.482;2023-09-12T08:15:07;13.13;;;11.82;;
7495;SDS011;3789;47.064;15.482;2023-09-12T08:17:39;14.45;;;12.90;;
7495;SDS011;3789;47.064;15.482;2023-09-12T08:20:10;13.77;;;12.13;;
7495;SDS011;3789;47.064;15.482;2023-09-12T08:22:41;14.02;;;12.63;;
7495;SDS011;3789;47.064;15.482;2023-09-12T08:25:12;14.43;;;13.05;;
7495;SDS011;3789;47.064;15.482;2023-09-12T08:27:42;14.70;;;12.90;;
7495;SDS011;3789;47.064;15.482;2023-09-12T08:30:22;13.80;;;12.50;;
7495;SDS011;3789;47.064;15.482;2023-09-12T08:32:53;13.63;;;12.25;;
7495;SDS011;3789;47.064;15.482;2023-09-12T08:35:23;14.13;;;12.68;;
7495;SDS011;3789;47.064;15.482;2023-09-12T08:37:53;14.73;;;13.25;;
7495;SDS011;3789;47.064;15.482;2023-09-12T08:40:22;17.38;;;12.77;;
7495;SDS011;3789;47.064;15.482;2023-09-12T08:42:50;13.57;;;12.27;;
7495;SDS011;3789;47.064;15.482;2023-09-12T08:45:23;14.90;;;13.57;;
7495;SDS011;3789;47.064;15.482;2023-09-12T08:47:53;13.30;;;12.02;;
7495;SDS011;3789;47.064;15.482;2023-09-12T08:50:25;13.85;;;12.55;;
7495;SDS011;3789;47.064;15.482;2023-09-12T08:52:59;13.00;;;11.75;;
7495;SDS011;3789;47.064;15.482;2023-09-12T08:55:34;13.15;;;11.95;;
7495;SDS011;3789;47.064;15.482;2023-09-12T08:58:07;14.20;;;12.80;;
7495;SDS011;3789;47.064;15.482;2023-09-12T09:00:37;14.43;;;12.88;;
7495;SDS011;3789;47.064;15.482;2023-09-12T09:03:05;13.77;;;12.35;;
7495;SDS011;3789;47.064;15.482;2023-09-12T09:05:39;13.40;;;12.20;;
7495;SDS011;3789;47.064;15.482;2023-09-12T09:08:10;14.82;;;13.52;;
7495;SDS011;3789;47.064;15.482;2023-09-12T09:10:39;14.35;;;13.02;;
7495;SDS011;3789;47.064;15.482;2023-09-12T09:13:25;14.43;;;13.02;;
7495;SDS011;3789;47.064;15.482;2023-09-12T09:16:18;14.57;;;13.23;;
7495;SDS011;3789;47.064;15.482;2023-09-12T09:18:57;14.95;;;13.45;;
7495;SDS011;3789;47.064;15.482;2023-09-12T09:21:38;13.32;;;12.15;;
7495;SDS011;3789;47.064;15.482;2023-09-12T09:24:10;15.10;;;13.73;;
7495;SDS011;3789;47.064;15.482;2023-09-12T09:26:47;14.38;;;12.95;;
7495;SDS011;3789;47.064;15.482;2023-09-12T09:29:29;13.82;;;12.43;;
7495;SDS011;3789;47.064;15.482;2023-09-12T09:32:00;13.50;;;12.48;;
7495;SDS011;3789;47.064;15.482;2023-09-12T09:34:30;14.02;;;12.68;;
7495;SDS011;3789;47.064;15.482;2023-09-12T09:37:02;14.10;;;12.40;;
7495;SDS011;3789;47.064;15.482;2023-09-12T09:39:41;13.20;;;12.00;;
7495;SDS011;3789;47.064;15.482;2023-09-12T09:42:11;14.40;;;13.02;;
7495;SDS011;3789;47.064;15.482;2023-09-12T09:44:43;13.90;;;12.60;;
7495;SDS011;3789;47.064;15.482;2023-09-12T09:47:16;14.25;;;13.00;;
7495;SDS011;3789;47.064;15.482;2023-09-12T09:49:57;14.40;;;13.15;;
7495;SDS011;3789;47.064;15.482;2023-09-12T09:52:27;14.60;;;13.20;;
7495;SDS011;3789;47.064;15.482;2023-09-12T09:55:06;14.32;;;12.95;;
7495;SDS011;3789;47.064;15.482;2023-09-12T09:57:38;14.68;;;13.27;;
7495;SDS011;3789;47.064;15.482;2023-09-12T10:00:07;14.07;;;12.80;;
7495;SDS011;3789;47.064;15.482;2023-09-12T10:02:37;15.25;;;13.13;;
7495;SDS011;3789;47.064;15.482;2023-09-12T10:05:09;15.05;;;13.60;;
7495;SDS011;3789;47.064;15.482;2023-09-12T10:07:39;15.05;;;13.63;;
7495;SDS011;3789;47.064;15.482;2023-09-12T10:10:13;13.98;;;12.60;;
7495;SDS011;3789;47.064;15.482;2023-09-12T10:12:48;14.65;;;13.38;;
7495;SDS011;3789;47.064;15.482;2023-09-12T10:15:20;13.95;;;12.75;;
7495;SDS011;3789;47.064;15.482;2023-09-12T10:18:00;14.68;;;13.43;;
7495;SDS011;3789;47.064;15.482;2023-09-12T10:20:45;14.45;;;13.25;;
7495;SDS011;3789;47.064;15.482;2023-09-12T10:23:41;14.48;;;13.23;;
7495;SDS011;3789;47.064;15.482;2023-09-12T10:26:13;15.70;;;14.18;;
7495;SDS011;3789;47.064;15.482;2023-09-12T10:28:50;13.98;;;12.82;;
7495;SDS011;3789;47.064;15.482;2023-09-12T10:31:19;13.68;;;12.48;;
7495;SDS011;3789;47.064;15.482;2023-09-12T10:33:48;14.40;;;13.10;;
7495;SDS011;3789;47.064;15.482;2023-09-12T10:36:21;14.50;;;13.32;;
7495;SDS011;3789;47.064;15.482;2023-09-12T10:38:54;15.20;;;13.93;;
7495;SDS011;3789;47.064;15.482;2023-09-12T10:41:24;13.77;;;12.55;;
7495;SDS011;3789;47.064;15.482;2023-09-12T10:43:57;15.30;;;13.82;;
7495;SDS011;3789;47.064;15.482;2023-09-12T10:46:36;13.85;;;12.73;;
7495;SDS011;3789;47.064;15.482;2023-09-12T10:49:08;13.90;;;12.65;;
7495;SDS011;3789;47.064;15.482;2023-09-12T10:51:47;15.40;;;13.88;;
7495;SDS011;3789;47.064;15.482;2023-09-12T10:54:24;14.75;;;13.55;;
7495;SDS011;3789;47.064;15.482;2023-09-12T10:57:14;14.60;;;13.35;;
7495;SDS011;3789;47.064;15.482;2023-09-12T11:00:08;13.63;;;12.60;;
7495;SDS011;3789;47.064;15.482;2023-09-12T11:02:37;14.35;;;13.15;;
7495;SDS011;3789;47.064;15.482;2023-09-12T11:05:54;14.70;;;13.30;;
7495;SDS011;3789;47.064;15.482;2023-09-12T11:08:01;14.48;;;13.10;;
7495;SDS011;3789;47.064;15.482;2023-09-12T11:10:35;14.18;;;12.75;;
7495;SDS011;3789;47.064;15.482;2023-09-12T11:13:17;14.25;;;13.10;;
7495;SDS011;3789;47.064;15.482;2023-09-12T11:16:10;14.65;;;13.30;;
7495;SDS011;3789;47.064;15.482;2023-09-12T11:21:53;13.13;;;12.02;;
7495;SDS011;3789;47.064;15.482;2023-09-12T11:24:24;15.82;;;12.38;;
7495;SDS011;3789;47.064;15.482;2023-09-12T11:27:02;13.93;;;12.82;;
7495;SDS011;3789;47.064;15.482;2023-09-12T11:29:38;13.90;;;12.73;;
7495;SDS011;3789;47.064;15.482;2023-09-12T11:32:08;13.32;;;12.32;;
7495;SDS011;3789;47.064;15.482;2023-09-12T11:34:43;15.13;;;13.82;;
7495;SDS011;3789;47.064;15.482;2023-09-12T11:37:21;13.38;;;12.05;;
7495;SDS011;3789;47.064;15.482;2023-09-12T11:39:54;13.52;;;12.50;;
7495;SDS011;3789;47.064;15.482;2023-09-12T11:42:27;13.18;;;11.98;;
7495;SDS011;3789;47.064;15.482;2023-09-12T11:45:00;13.60;;;12.40;;
7495;SDS011;3789;47.064;15.482;2023-09-12T11:47:42;13.75;;;12.75;;
7495;SDS011;3789;47.064;15.482;2023-09-12T11:53:11;13.20;;;12.10;;
7495;SDS011;3789;47.064;15.482;2023-09-12T11:55:44;13.52;;;12.32;;
7495;SDS011;3789;47.064;15.482;2023-09-12T11:58:18;13.93;;;12.60;;
7495;SDS011;3789;47.064;15.482;2023-09-12T12:00:51;14.90;;;13.55;;
7495;SDS011;3789;47.064;15.482;2023-09-12T12:03:24;14.50;;;13.20;;
7495;SDS011;3789;47.064;15.482;2023-09-12T12:05:57;13.40;;;12.23;;
7495;SDS011;3789;47.064;15.482;2023-09-12T12:08:28;13.02;;;11.82;;
7495;SDS011;3789;47.064;15.482;2023-09-12T12:11:00;13.32;;;12.23;;
7495;SDS011;3789;47.064;15.482;2023-09-12T12:13:37;14.48;;;13.23;;
7495;SDS011;3789;47.064;15.482;2023-09-12T12:16:16;13.07;;;12.07;;
7495;SDS011;3789;47.064;15.482;2023-09-12T12:18:43;14.05;;;12.82;;
7495;SDS011;3789;47.064;15.482;2023-09-12T12:21:13;13.10;;;12.07;;
7495;SDS011;3789;47.064;15.482;2023-09-12T12:23:42;13.25;;;12.25;;
7495;SDS011;3789;47.064;15.482;2023-09-12T12:26:12;14.25;;;12.90;;
7495;SDS011;3789;47.064;15.482;2023-09-12T12:28:44;14.02;;;12.63;;
7495;SDS011;3789;47.064;15.482;2023-09-12T12:31:16;13.57;;;12.25;;
7495;SDS011;3789;47.064;15.482;2023-09-12T12:33:48;13.68;;;12.40;;
7495;SDS011;3789;47.064;15.482;2023-09-12T12:36:43;13.30;;;12.07;;
7495;SDS011;3789;47.064;15.482;2023-09-12T12:39:23;13.02;;;11.85;;
7495;SDS011;3789;47.064;15.482;2023-09-12T12:41:53;12.57;;;11.57;;
7495;SDS011;3789;47.064;15.482;2023-09-12T12:44:32;12.98;;;11.90;;
7495;SDS011;3789;47.064;15.482;2023-09-12T12:47:04;13.95;;;12.82;;
7495;SDS011;3789;47.064;15.482;2023-09-12T12:49:37;14.40;;;13.00;;
7495;SDS011;3789;47.064;15.482;2023-09-12T12:52:12;14.00;;;12.90;;
7495;SDS011;3789;47.064;15.482;2023-09-12T12:54:41;14.70;;;13.48;;
7495;SDS011;3789;47.064;15.482;2023-09-12T12:57:12;15.32;;;13.90;;
7495;SDS011;3789;47.064;15.482;2023-09-12T12:59:44;13.90;;;12.73;;
7495;SDS011;3789;47.064;15.482;2023-09-12T13:02:15;13.57;;;12.48;;
7495;SDS011;3789;47.064;15.482;2023-09-12T13:04:47;13.32;;;12.23;;
7495;SDS011;3789;47.064;15.482;2023-09-12T13:07:34;15.10;;;13.65;;
7495;SDS011;3789;47.064;15.482;2023-09-12T13:10:12;13.35;;;12.35;;
7495;SDS011;3789;47.064;15.482;2023-09-12T13:12:42;15.02;;;13.60;;
7495;SDS011;3789;47.064;15.482;2023-09-12T13:15:16;14.45;;;13.10;;
7495;SDS011;3789;47.064;15.482;2023-09-12T13:17:47;13.73;;;12.52;;
7495;SDS011;3789;47.064;15.482;2023-09-12T13:20:14;14.65;;;13.18;;
7495;SDS011;3789;47.064;15.482;2023-09-12T13:22:43;14.27;;;13.02;;
7495;SDS011;3789;47.064;15.482;2023-09-12T13:25:13;14.77;;;13.55;;
7495;SDS011;3789;47.064;15.482;2023-09-12T13:27:43;14.60;;;13.38;;
7495;SDS011;3789;47.064;15.482;2023-09-12T13:30:20;13.80;;;12.60;;
7495;SDS011;3789;47.064;15.482;2023-09-12T13:32:49;13.60;;;12.40;;
7495;SDS011;3789;47.064;15.482;2023-09-12T13:35:18;13.05;;;11.85;;
7495;SDS011;3789;47.064;15.482;2023-09-12T13:37:48;13.65;;;12.52;;
7495;SDS011;3789;47.064;15.482;2023-09-12T13:40:24;13.80;;;12.38;;
7495;SDS011;3789;47.064;15.482;2023-09-12T13:42:58;12.77;;;11.57;;
7495;SDS011;3789;47.064;15.482;2023-09-12T13:45:29;13.02;;;11.93;;
7495;SDS011;3789;47.064;15.482;2023-09-12T13:48:08;13.00;;;11.90;;
7495;SDS011;3789;47.064;15.482;2023-09-12T13:50:38;12.55;;;11.43;;
7495;SDS011;3789;47.064;15.482;2023-09-12T13:53:08;13.05;;;11.95;;
7495;SDS011;3789;47.064;15.482;2023-09-12T13:55:44;12.20;;;11.23;;
7495;SDS011;3789;47.064;15.482;2023-09-12T13:58:21;12.07;;;11.07;;
7495;SDS011;3789;47.064;15.482;2023-09-12T14:00:55;12.65;;;11.38;;
7495;SDS011;3789;47.064;15.482;2023-09-12T14:03:37;12.60;;;11.50;;
7495;SDS011;3789;47.064;15.482;2023-09-12T14:06:12;11.70;;;10.70;;
7495;SDS011;3789;47.064;15.482;2023-09-12T14:08:41;12.65;;;11.55;;
7495;SDS011;3789;47.064;15.482;2023-09-12T14:11:12;12.50;;;11.20;;
7495;SDS011;3789;47.064;15.482;2023-09-12T14:13:58;11.80;;;10.70;;
7495;SDS011;3789;47.064;15.482;2023-09-12T14:16:44;12.10;;;10.95;;
7495;SDS011;3789;47.064;15.482;2023-09-12T14:19:15;11.60;;;10.63;;
7495;SDS011;3789;47.064;15.482;2023-09-12T14:21:45;11.82;;;10.65;;
7495;SDS011;3789;47.064;15.482;2023-09-12T14:24:16;12.10;;;11.00;;
7495;SDS011;3789;47.064;15.482;2023-09-12T14:26:48;12.07;;;11.07;;
7495;SDS011;3789;47.064;15.482;2023-09-12T14:29:19;12.35;;;11.27;;
7495;SDS011;3789;47.064;15.482;2023-09-12T14:31:48;12.27;;;11.05;;
7495;SDS011;3789;47.064;15.482;2023-09-12T14:34:26;12.65;;;11.55;;
7495;SDS011;3789;47.064;15.482;2023-09-12T14:37:01;13.15;;;11.85;;
7495;SDS011;3789;47.064;15.482;2023-09-12T14:39:30;12.60;;;11.25;;
7495;SDS011;3789;47.064;15.482;2023-09-12T14:41:59;11.63;;;10.45;;
7495;SDS011;3789;47.064;15.482;2023-09-12T14:44:33;12.40;;;11.23;;
7495;SDS011;3789;47.064;15.482;2023-09-12T14:47:03;13.20;;;12.00;;
7495;SDS011;3789;47.064;15.482;2023-09-12T14:49:33;13.20;;;11.90;;
7495;SDS011;3789;47.064;15.482;2023-09-12T14:52:13;12.48;;;11.15;;
7495;SDS011;3789;47.064;15.482;2023-09-12T14:54:53;11.68;;;10.57;;
7495;SDS011;3789;47.064;15.482;2023-09-12T14:57:27;12.77;;;11.55;;
7495;SDS011;3789;47.064;15.482;2023-09-12T14:59:57;14.43;;;11.75;;
7495;SDS011;3789;47.064;15.482;2023-09-12T15:02:27;12.32;;;11.18;;
7495;SDS011;3789;47.064;15.482;2023-09-12T15:05:01;12.60;;;11.35;;
7495;SDS011;3789;47.064;15.482;2023-09-12T15:07:30;13.15;;;11.98;;
7495;SDS011;3789;47.064;15.482;2023-09-12T15:10:08;12.85;;;11.63;;
7495;SDS011;3789;47.064;15.482;2023-09-12T15:12:38;13.20;;;11.98;;
7495;SDS011;3789;47.064;15.482;2023-09-12T15:15:07;12.98;;;11.77;;
7495;SDS011;3789;47.064;15.482;2023-09-12T15:17:43;13.73;;;12.23;;
7495;SDS011;3789;47.064;15.482;2023-09-12T15:20:13;14.63;;;13.02;;
7495;SDS011;3789;47.064;15.482;2023-09-12T15:22:41;14.38;;;13.07;;
7495;SDS011;3789;47.064;15.482;2023-09-12T15:25:19;13.93;;;12.70;;
7495;SDS011;3789;47.064;15.482;2023-09-12T15:27:48;13.15;;;11.95;;
7495;SDS011;3789;47.064;15.482;2023-09-12T15:30:16;12.18;;;10.98;;
7495;SDS011;3789;47.064;15.482;2023-09-12T15:32:44;12.77;;;11.68;;
7495;SDS011;3789;47.064;15.482;2023-09-12T15:35:15;13.20;;;12.07;;
7495;SDS011;3789;47.064;15.482;2023-09-12T15:37:50;12.45;;;11.25;;
7495;SDS011;3789;47.064;15.482;2023-09-12T15:40:19;12.75;;;11.57;;
7495;SDS011;3789;47.064;15.482;2023-09-12T15:42:47;12.55;;;11.50;;
7495;SDS011;3789;47.064;15.482;2023-09-12T15:45:17;12.20;;;11.20;;
7495;SDS011;3789;47.064;15.482;2023-09-12T15:47:49;12.38;;;11.20;;
7495;SDS011;3789;47.064;15.482;2023-09-12T15:50:19;12.00;;;11.00;;
7495;SDS011;3789;47.064;15.482;2023-09-12T15:52:47;12.35;;;11.15;;
7495;SDS011;3789;47.064;15.482;2023-09-12T15:55:17;13.27;;;12.07;;